createdAt,value
2017-11-15T00:00:44.404Z,44.45
2017-11-15T00:03:11.947Z,41.05
2017-11-15T00:05:39.527Z,42.60
2017-11-15T00:08:07.061Z,38.97
2017-11-15T00:10:34.642Z,40.17
2017-11-15T00:13:02.187Z,44.13
2017-11-15T00:15:29.763Z,39.72
2017-11-15T00:17:57.315Z,42.67
2017-11-15T00:20:24.895Z,39.38
2017-11-15T00:22:53.947Z,41.80
2017-11-15T00:25:21.520Z,36.28
2017-11-15T00:27:49.061Z,36.47
2017-11-15T00:30:16.642Z,38.67
2017-11-15T00:32:44.178Z,43.20
2017-11-15T00:35:11.860Z,40.40
2017-11-15T00:37:39.590Z,38.33
2017-11-15T00:40:07.943Z,38.65
2017-11-15T00:42:35.491Z,41.28
2017-11-15T00:45:03.070Z,42.53
2017-11-15T00:47:31.394Z,40.47
2017-11-15T00:49:58.989Z,37.53
2017-11-15T00:52:26.532Z,51.05
2017-11-15T00:54:54.358Z,44.35
2017-11-15T00:57:21.894Z,39.97
2017-11-15T00:59:50.233Z,41.25
2017-11-15T01:02:17.778Z,40.95
2017-11-15T01:04:45.352Z,44.95
2017-11-15T01:07:12.892Z,40.70
2017-11-15T01:09:40.471Z,46.20
2017-11-15T01:12:08.035Z,46.45
2017-11-15T01:14:35.629Z,51.17
2017-11-15T01:17:03.938Z,38.70
2017-11-15T01:19:31.515Z,43.22
2017-11-15T01:21:59.091Z,43.03
2017-11-15T01:24:26.670Z,42.20
2017-11-15T01:26:54.209Z,44.00
2017-11-15T01:29:21.793Z,44.00
2017-11-15T01:31:49.333Z,43.85
2017-11-15T01:34:16.915Z,38.15
2017-11-15T01:36:44.461Z,40.08
2017-11-15T01:39:12.037Z,41.85
2017-11-15T01:41:39.575Z,39.55
2017-11-15T01:44:07.149Z,40.47
2017-11-15T01:46:34.701Z,43.42
2017-11-15T01:49:02.280Z,33.63
2017-11-15T01:51:29.823Z,41.30
2017-11-15T01:53:57.402Z,35.33
2017-11-15T01:56:24.947Z,35.67
2017-11-15T01:58:52.587Z,35.97
2017-11-15T02:01:20.140Z,39.85
2017-11-15T02:03:47.728Z,34.13
2017-11-15T02:06:15.275Z,39.35
2017-11-15T02:08:42.868Z,33.10
2017-11-15T02:11:11.170Z,40.20
2017-11-15T02:13:38.753Z,32.38
2017-11-15T02:16:06.302Z,34.13
2017-11-15T02:18:33.878Z,34.70
2017-11-15T02:21:01.423Z,29.70
2017-11-15T02:23:29.004Z,35.00
2017-11-15T02:25:56.578Z,33.60
2017-11-15T02:28:24.158Z,39.63
2017-11-15T02:30:51.701Z,36.83
2017-11-15T02:33:19.286Z,29.02
2017-11-15T02:35:47.595Z,34.55
2017-11-15T02:38:15.135Z,32.80
2017-11-15T02:40:43.472Z,29.37
2017-11-15T02:43:11.012Z,33.53
2017-11-15T02:45:38.605Z,35.00
2017-11-15T02:48:06.150Z,32.75
2017-11-15T02:50:33.689Z,32.65
2017-11-15T02:53:01.264Z,35.95
2017-11-15T02:55:28.805Z,37.60
2017-11-15T02:57:56.345Z,30.52
2017-11-15T03:00:23.953Z,31.00
2017-11-15T03:02:51.501Z,33.65
2017-11-15T03:05:19.037Z,32.13
2017-11-15T03:07:46.600Z,28.75
2017-11-15T03:10:14.182Z,29.45
2017-11-15T03:12:41.716Z,30.48
2017-11-15T03:15:09.253Z,35.30
2017-11-15T03:17:36.828Z,28.83
2017-11-15T03:20:04.364Z,28.75
2017-11-15T03:22:31.952Z,30.85
2017-11-15T03:24:59.484Z,32.53
2017-11-15T03:27:27.789Z,37.08
2017-11-15T03:29:55.364Z,33.40
2017-11-15T03:32:22.926Z,32.47
2017-11-15T03:34:50.497Z,33.33
2017-11-15T03:37:18.070Z,33.05
2017-11-15T03:39:45.609Z,33.35
2017-11-15T03:42:13.159Z,31.30
2017-11-15T03:44:40.725Z,28.05
2017-11-15T03:47:08.297Z,31.77
2017-11-15T03:49:35.855Z,31.75
2017-11-15T03:52:03.438Z,27.75
2017-11-15T03:54:31.765Z,31.48
2017-11-15T03:56:59.359Z,29.17
2017-11-15T03:59:28.414Z,30.80
2017-11-15T04:01:55.953Z,29.83
2017-11-15T04:04:23.527Z,27.37
2017-11-15T04:06:51.066Z,31.80
2017-11-15T04:09:19.410Z,30.60
2017-11-15T04:11:46.980Z,28.92
2017-11-15T04:14:14.517Z,30.65
2017-11-15T04:16:42.091Z,34.60
2017-11-15T04:19:09.665Z,29.77
2017-11-15T04:21:37.207Z,29.05
2017-11-15T04:24:04.790Z,30.23
2017-11-15T04:26:33.133Z,32.50
2017-11-15T04:29:00.729Z,26.05
2017-11-15T04:31:29.030Z,29.08
2017-11-15T04:33:56.569Z,32.20
2017-11-15T04:36:24.965Z,30.20
2017-11-15T04:38:52.504Z,31.87
2017-11-15T04:41:20.824Z,28.87
2017-11-15T04:43:48.402Z,28.45
2017-11-15T04:46:15.943Z,30.60
2017-11-15T04:48:43.544Z,32.25
2017-11-15T04:51:11.119Z,31.08
2017-11-15T04:53:39.429Z,31.55
2017-11-15T04:56:06.998Z,31.92
2017-11-15T04:58:34.535Z,29.27
2017-11-15T05:01:02.117Z,32.10
2017-11-15T05:03:29.688Z,33.30
2017-11-15T05:05:57.279Z,32.00
2017-11-15T05:08:24.831Z,28.85
2017-11-15T05:10:52.384Z,35.60
2017-11-15T05:13:19.952Z,36.90
2017-11-15T05:15:47.490Z,34.17
2017-11-15T05:18:15.085Z,30.48
2017-11-15T05:20:42.621Z,31.80
2017-11-15T05:23:10.210Z,28.40
2017-11-15T05:25:37.749Z,30.25
2017-11-15T05:28:05.288Z,30.75
2017-11-15T05:30:32.857Z,31.58
2017-11-15T05:33:00.436Z,31.55
2017-11-15T05:35:28.740Z,27.37
2017-11-15T05:37:57.168Z,27.73
2017-11-15T05:40:24.707Z,28.30
2017-11-15T05:42:52.257Z,29.23
2017-11-15T05:45:19.972Z,27.30
2017-11-15T05:47:48.298Z,26.80
2017-11-15T05:50:15.832Z,24.87
2017-11-15T05:52:44.166Z,28.62
2017-11-15T05:55:11.711Z,26.33
2017-11-15T05:57:39.489Z,25.95
2017-11-15T06:00:07.030Z,27.23
2017-11-15T06:02:34.566Z,26.12
2017-11-15T06:05:02.145Z,25.20
2017-11-15T06:07:29.679Z,23.87
2017-11-15T06:09:58.170Z,24.95
2017-11-15T06:12:25.710Z,25.73
2017-11-15T06:14:53.175Z,30.20
2017-11-15T06:17:20.870Z,30.17
2017-11-15T06:19:48.432Z,29.37
2017-11-15T06:22:15.927Z,26.37
2017-11-15T06:24:43.532Z,27.45
2017-11-15T06:27:11.078Z,27.25
2017-11-15T06:29:38.649Z,29.67
2017-11-15T06:32:06.255Z,30.02
2017-11-15T06:34:33.800Z,26.45
2017-11-15T06:37:01.391Z,28.33
2017-11-15T06:39:28.943Z,27.62
2017-11-15T06:41:56.482Z,24.75
2017-11-15T06:44:24.098Z,26.45
2017-11-15T06:46:52.402Z,29.67
2017-11-15T06:49:19.980Z,26.75
2017-11-15T06:51:47.517Z,27.77
2017-11-15T06:54:15.100Z,25.10
2017-11-15T06:56:42.650Z,30.02
2017-11-15T06:59:10.230Z,24.58
2017-11-15T07:01:37.766Z,24.90
2017-11-15T07:04:05.341Z,27.70
2017-11-15T07:06:32.884Z,23.75
2017-11-15T07:09:00.463Z,29.40
2017-11-15T07:11:28.005Z,26.30
2017-11-15T07:13:55.584Z,25.05
2017-11-15T07:16:23.122Z,25.88
2017-11-15T07:18:50.785Z,32.60
2017-11-15T07:21:18.325Z,30.37
2017-11-15T07:23:45.902Z,30.45
2017-11-15T07:26:13.437Z,35.22
2017-11-15T07:28:41.008Z,35.40
2017-11-15T07:31:08.546Z,28.80
2017-11-15T07:33:36.884Z,37.17
2017-11-15T07:36:04.423Z,31.67
2017-11-15T07:38:31.996Z,36.50
2017-11-15T07:40:59.528Z,36.05
2017-11-15T07:43:27.105Z,34.45
2017-11-15T07:45:54.652Z,36.70
2017-11-15T07:48:22.235Z,39.63
2017-11-15T07:50:49.781Z,37.05
2017-11-15T07:53:17.358Z,43.42
2017-11-15T07:55:44.894Z,37.72
2017-11-15T07:58:12.467Z,37.65
2017-11-15T08:00:40.002Z,42.58
2017-11-15T08:03:07.582Z,37.17
2017-11-15T08:05:35.130Z,36.88
2017-11-15T08:08:02.710Z,39.33
2017-11-15T08:10:30.253Z,42.88
2017-11-15T08:12:57.824Z,41.92
2017-11-15T08:15:25.359Z,40.65
2017-11-15T08:17:52.939Z,43.30
2017-11-15T08:20:20.594Z,38.67
2017-11-15T08:22:48.170Z,40.92
2017-11-15T08:25:15.713Z,37.40
2017-11-15T08:27:43.289Z,41.97
2017-11-15T08:30:10.832Z,37.55
2017-11-15T08:32:38.412Z,37.95
2017-11-15T08:35:05.953Z,35.67
2017-11-15T08:37:33.620Z,43.63
2017-11-15T08:40:01.166Z,38.45
2017-11-15T08:42:28.742Z,44.20
2017-11-15T08:44:56.291Z,39.17
2017-11-15T08:47:23.872Z,35.75
2017-11-15T08:49:51.410Z,47.28
2017-11-15T08:52:18.985Z,37.03
2017-11-15T08:54:46.549Z,38.40
2017-11-15T08:57:14.131Z,45.70
2017-11-15T08:59:42.457Z,42.17
2017-11-15T09:02:10.038Z,42.55
2017-11-15T09:04:37.579Z,45.22
2017-11-15T09:07:05.152Z,39.17
2017-11-15T09:09:32.689Z,43.05
2017-11-15T09:12:00.297Z,45.20
2017-11-15T09:14:27.836Z,41.00
2017-11-15T09:16:55.421Z,41.53
2017-11-15T09:19:22.962Z,41.85
2017-11-15T09:21:50.533Z,39.25
2017-11-15T09:24:18.069Z,45.75
2017-11-15T09:26:45.642Z,39.90
2017-11-15T09:29:13.181Z,35.58
2017-11-15T09:31:40.766Z,38.70
2017-11-15T09:34:08.311Z,37.75
2017-11-15T09:36:35.864Z,42.60
2017-11-15T09:39:03.443Z,40.70
2017-11-15T09:41:30.987Z,36.95
2017-11-15T09:43:58.566Z,37.00
2017-11-15T09:46:26.118Z,36.85
2017-11-15T09:48:53.701Z,36.42
2017-11-15T09:51:21.239Z,42.95
2017-11-15T09:53:48.817Z,38.63
2017-11-15T09:56:16.354Z,40.90
2017-11-15T09:58:43.931Z,38.72
2017-11-15T10:01:11.495Z,40.10
2017-11-15T10:03:39.123Z,34.42
2017-11-15T10:06:06.663Z,40.63
2017-11-15T10:08:34.240Z,36.90
2017-11-15T10:11:01.799Z,41.80
2017-11-15T10:13:29.375Z,37.70
2017-11-15T10:15:56.915Z,33.50
2017-11-15T10:18:24.583Z,43.38
2017-11-15T10:20:52.121Z,42.40
2017-11-15T10:23:19.693Z,35.13
2017-11-15T10:25:47.235Z,37.10
2017-11-15T10:28:14.816Z,38.38
2017-11-15T10:30:42.352Z,38.10
2017-11-15T10:33:09.983Z,38.92
2017-11-15T10:35:38.304Z,32.20
2017-11-15T10:38:05.905Z,32.05
2017-11-15T10:40:33.489Z,34.72
2017-11-15T10:43:01.899Z,34.65
2017-11-15T10:45:29.498Z,32.05
2017-11-15T10:47:57.054Z,33.25
2017-11-15T10:50:24.593Z,34.97
2017-11-15T10:52:52.198Z,36.50
2017-11-15T10:55:19.739Z,31.73
2017-11-15T10:57:47.317Z,34.17
2017-11-15T11:00:14.858Z,31.05
2017-11-15T11:02:42.440Z,33.10
2017-11-15T11:05:09.982Z,28.45
2017-11-15T11:07:37.569Z,30.40
2017-11-15T11:10:05.878Z,29.98
2017-11-15T11:12:33.465Z,28.33
2017-11-15T11:15:01.005Z,24.02
2017-11-15T11:17:28.582Z,26.05
2017-11-15T11:19:56.116Z,30.75
2017-11-15T11:22:23.699Z,28.38
2017-11-15T11:24:51.248Z,23.15
2017-11-15T11:27:18.834Z,31.05
2017-11-15T11:29:46.380Z,29.65
2017-11-15T11:32:13.959Z,25.98
2017-11-15T11:34:41.494Z,25.92
2017-11-15T11:37:09.075Z,24.52
2017-11-15T11:39:36.613Z,27.45
2017-11-15T11:42:04.189Z,24.87
2017-11-15T11:44:31.728Z,24.77
2017-11-15T11:46:59.317Z,24.52
2017-11-15T11:49:26.853Z,23.92
2017-11-15T11:51:54.427Z,23.25
2017-11-15T11:54:21.961Z,25.02
2017-11-15T11:56:49.535Z,23.55
2017-11-15T11:59:17.074Z,28.62
2017-11-15T12:01:44.754Z,22.90
2017-11-15T12:04:12.294Z,22.42
2017-11-15T12:06:39.870Z,25.62
2017-11-15T12:09:07.409Z,26.00
2017-11-15T12:11:34.982Z,29.87
2017-11-15T12:14:02.522Z,24.02
2017-11-15T12:16:30.110Z,26.65
2017-11-15T12:18:57.665Z,24.65
2017-11-15T12:21:25.258Z,27.65
2017-11-15T12:23:52.807Z,27.73
2017-11-15T12:26:20.391Z,31.70
2017-11-15T12:28:47.930Z,30.40
2017-11-15T12:31:15.505Z,32.25
2017-11-15T12:33:43.053Z,28.45
2017-11-15T12:36:10.636Z,26.92
2017-11-15T12:38:38.182Z,32.60
2017-11-15T12:41:05.760Z,27.37
2017-11-15T12:43:34.065Z,27.87
2017-11-15T12:46:01.633Z,29.45
2017-11-15T12:48:29.172Z,31.73
2017-11-15T12:50:57.513Z,28.42
2017-11-15T12:53:25.053Z,32.70
2017-11-15T12:55:52.629Z,30.95
2017-11-15T12:58:20.201Z,30.60
2017-11-15T13:00:48.541Z,33.78
2017-11-15T13:03:16.869Z,33.03
2017-11-15T13:05:45.297Z,28.62
2017-11-15T13:08:12.842Z,28.25
2017-11-15T13:10:40.628Z,31.35
2017-11-15T13:13:08.504Z,30.25
2017-11-15T13:15:36.179Z,31.12
2017-11-15T13:18:03.729Z,33.10
2017-11-15T13:20:31.369Z,38.67
2017-11-15T13:22:58.919Z,39.50
2017-11-15T13:25:26.498Z,38.83
2017-11-15T13:27:54.034Z,35.05
2017-11-15T13:30:21.608Z,38.97
2017-11-15T13:32:49.144Z,38.08
2017-11-15T13:35:16.724Z,39.85
2017-11-15T13:37:44.262Z,33.22
2017-11-15T13:40:11.853Z,41.53
2017-11-15T13:42:39.390Z,43.20
2017-11-15T13:45:06.968Z,33.78
2017-11-15T13:47:34.531Z,40.42
2017-11-15T13:50:02.097Z,45.22
2017-11-15T13:52:29.630Z,47.17
2017-11-15T13:54:57.212Z,40.95
2017-11-15T13:57:24.750Z,47.30
2017-11-15T13:59:52.326Z,41.45
2017-11-15T14:02:19.873Z,37.80
2017-11-15T14:04:47.460Z,43.00
2017-11-15T14:07:15.010Z,47.20
2017-11-15T14:09:42.567Z,48.80
2017-11-15T14:12:10.141Z,45.03
2017-11-15T14:14:37.687Z,40.72
2017-11-15T14:17:05.267Z,43.55
2017-11-15T14:19:32.805Z,38.25
2017-11-15T14:22:00.379Z,39.25
2017-11-15T14:24:27.919Z,39.65
2017-11-15T14:26:55.505Z,40.88
2017-11-15T14:29:23.041Z,39.53
2017-11-15T14:31:50.622Z,46.28
2017-11-15T14:34:18.174Z,40.42
2017-11-15T14:36:45.753Z,44.90
2017-11-15T14:39:13.294Z,48.85
2017-11-15T14:41:40.881Z,46.30
2017-11-15T14:44:08.419Z,49.35
2017-11-15T14:46:35.994Z,45.30
2017-11-15T14:49:03.591Z,46.58
2017-11-15T14:51:31.186Z,45.00
2017-11-15T14:53:58.737Z,45.35
2017-11-15T14:56:26.316Z,47.20
2017-11-15T14:58:53.872Z,46.63
2017-11-15T15:01:21.446Z,47.75
2017-11-15T15:03:48.985Z,47.80
2017-11-15T15:06:16.561Z,49.42
2017-11-15T15:08:44.097Z,50.85
2017-11-15T15:11:11.672Z,44.63
2017-11-15T15:13:39.217Z,53.53
2017-11-15T15:16:06.790Z,43.72
2017-11-15T15:18:34.332Z,42.08
2017-11-15T15:21:01.910Z,50.22
2017-11-15T15:23:29.446Z,53.55
2017-11-15T15:25:57.027Z,52.25
2017-11-15T15:28:24.575Z,53.60
2017-11-15T15:30:52.156Z,47.15
2017-11-15T15:33:19.695Z,45.60
2017-11-15T15:35:47.269Z,45.90
2017-11-15T15:38:14.809Z,50.35
2017-11-15T15:40:42.382Z,49.75
2017-11-15T15:43:09.916Z,49.95
2017-11-15T15:45:37.500Z,51.72
2017-11-15T15:48:05.032Z,42.78
2017-11-15T15:50:32.609Z,41.50
2017-11-15T15:53:00.165Z,49.55
2017-11-15T15:55:27.779Z,41.70
2017-11-15T15:57:55.314Z,44.78
2017-11-15T16:00:22.902Z,52.75
2017-11-15T16:02:51.209Z,45.97
2017-11-15T16:05:18.788Z,47.47
2017-11-15T16:07:46.330Z,48.83
2017-11-15T16:10:13.903Z,46.37
2017-11-15T16:12:41.444Z,42.17
2017-11-15T16:15:09.018Z,44.47
2017-11-15T16:17:36.573Z,50.28
2017-11-15T16:20:04.157Z,43.80
2017-11-15T16:22:31.700Z,39.63
2017-11-15T16:24:59.287Z,43.80
2017-11-15T16:27:26.829Z,38.88
2017-11-15T16:29:54.424Z,41.35
2017-11-15T16:32:21.957Z,37.13
2017-11-15T16:34:49.569Z,38.47
2017-11-15T16:37:22.582Z,39.05
2017-11-15T16:39:50.169Z,40.95
2017-11-15T16:42:17.708Z,41.85
2017-11-15T16:44:45.249Z,37.38
2017-11-15T16:47:12.821Z,36.85
2017-11-15T16:49:40.397Z,33.60
2017-11-15T16:52:07.933Z,35.20
2017-11-15T16:54:35.612Z,36.20
2017-11-15T16:57:03.158Z,39.97
2017-11-15T16:59:30.708Z,46.37
2017-11-15T17:01:58.283Z,48.03
2017-11-15T17:04:25.819Z,40.60
2017-11-15T17:06:54.163Z,50.50
2017-11-15T17:09:21.703Z,37.22
2017-11-15T17:11:49.280Z,38.67
2017-11-15T17:14:16.822Z,33.72
2017-11-15T17:16:44.397Z,36.80
2017-11-15T17:19:12.725Z,38.60
2017-11-15T17:21:40.292Z,37.17
2017-11-15T17:24:07.828Z,40.12
2017-11-15T17:26:36.169Z,39.45
2017-11-15T17:29:03.708Z,36.03
2017-11-15T17:31:31.284Z,34.28
2017-11-15T17:33:58.822Z,40.53
2017-11-15T17:36:26.415Z,39.97
2017-11-15T17:38:54.000Z,36.15
2017-11-15T17:41:22.303Z,35.25
2017-11-15T17:43:49.836Z,36.80
2017-11-15T17:46:18.186Z,38.95
2017-11-15T17:48:45.726Z,38.33
2017-11-15T17:51:13.296Z,40.40
2017-11-15T17:53:40.839Z,37.47
2017-11-15T17:56:08.409Z,41.90
2017-11-15T17:58:35.947Z,40.30
2017-11-15T18:01:03.525Z,38.42
2017-11-15T18:03:31.058Z,43.45
2017-11-15T18:05:58.634Z,55.00
2017-11-15T18:08:26.183Z,35.45
2017-11-15T18:10:53.768Z,43.05
2017-11-15T18:13:21.299Z,42.17
2017-11-15T18:15:48.878Z,41.92
2017-11-15T18:18:16.416Z,37.25
2017-11-15T18:20:43.990Z,42.58
2017-11-15T18:23:11.530Z,56.42
2017-11-15T18:25:39.107Z,39.30
2017-11-15T18:28:06.649Z,40.53
2017-11-15T18:30:34.222Z,46.15
2017-11-15T18:33:01.762Z,42.17
2017-11-15T18:35:29.346Z,43.53
2017-11-15T18:37:56.892Z,51.17
2017-11-15T18:40:24.469Z,37.63
2017-11-15T18:42:52.006Z,40.35
2017-11-15T18:45:19.583Z,42.05
2017-11-15T18:47:47.121Z,43.42
2017-11-15T18:50:14.695Z,33.47
2017-11-15T18:52:42.227Z,36.97
2017-11-15T18:55:10.569Z,37.35
2017-11-15T18:57:38.113Z,34.40
2017-11-15T19:00:05.686Z,37.78
2017-11-15T19:02:33.234Z,35.00
2017-11-15T19:05:00.815Z,35.50
2017-11-15T19:07:28.354Z,36.97
2017-11-15T19:09:55.931Z,38.83
2017-11-15T19:12:23.474Z,32.50
2017-11-15T19:14:51.057Z,40.83
2017-11-15T19:17:18.601Z,38.08
2017-11-15T19:19:46.172Z,31.60
2017-11-15T19:22:13.709Z,33.88
2017-11-15T19:24:41.280Z,32.97
2017-11-15T19:27:08.821Z,36.72
2017-11-15T19:29:36.389Z,32.42
2017-11-15T19:32:03.931Z,30.42
2017-11-15T19:34:31.548Z,34.15
2017-11-15T19:36:59.860Z,34.58
2017-11-15T19:39:27.432Z,34.45
2017-11-15T19:41:54.970Z,35.25
2017-11-15T19:44:22.545Z,34.38
2017-11-15T19:46:50.082Z,35.35
2017-11-15T19:49:17.669Z,33.63
2017-11-15T19:51:45.208Z,34.97
2017-11-15T19:54:13.645Z,37.28
2017-11-15T19:56:41.187Z,33.80
2017-11-15T19:59:08.772Z,32.90
2017-11-15T20:01:36.316Z,36.83
2017-11-15T20:04:03.892Z,34.78
2017-11-15T20:06:31.433Z,33.38
2017-11-15T20:08:59.009Z,37.38
2017-11-15T20:11:26.550Z,36.45
2017-11-15T20:13:54.124Z,38.90
2017-11-15T20:16:21.663Z,37.45
2017-11-15T20:18:49.240Z,38.75
2017-11-15T20:21:16.822Z,40.92
2017-11-15T20:23:45.147Z,39.17
2017-11-15T20:26:12.719Z,40.50
2017-11-15T20:28:40.263Z,34.45
2017-11-15T20:31:07.860Z,34.88
2017-11-15T20:33:35.397Z,35.97
2017-11-15T20:36:02.973Z,36.25
2017-11-15T20:38:30.515Z,36.58
2017-11-15T20:40:58.094Z,32.40
2017-11-15T20:43:25.633Z,46.08
2017-11-15T20:45:53.214Z,36.40
2017-11-15T20:48:20.758Z,38.25
2017-11-15T20:50:48.336Z,33.88
2017-11-15T20:53:15.874Z,34.97
2017-11-15T20:55:43.455Z,35.65
2017-11-15T20:58:11.080Z,40.00
2017-11-15T21:00:38.661Z,35.25
2017-11-15T21:03:06.205Z,40.05
2017-11-15T21:05:33.784Z,33.53
2017-11-15T21:08:01.321Z,34.80
2017-11-15T21:10:28.902Z,48.92
2017-11-15T21:12:56.442Z,35.75
2017-11-15T21:15:24.023Z,40.55
2017-11-15T21:17:51.561Z,37.97
2017-11-15T21:20:19.156Z,36.92
2017-11-15T21:22:46.691Z,40.58
2017-11-15T21:25:14.276Z,37.72
2017-11-15T21:27:41.817Z,38.65
2017-11-15T21:30:09.386Z,38.65
2017-11-15T21:32:36.924Z,40.85
2017-11-15T21:35:04.511Z,36.10
2017-11-15T21:37:32.054Z,40.22
2017-11-15T21:39:59.630Z,36.75
2017-11-15T21:42:27.170Z,40.58
2017-11-15T21:44:54.753Z,41.70
2017-11-15T21:47:22.297Z,41.90
2017-11-15T21:49:49.901Z,39.13
2017-11-15T21:52:18.204Z,38.50
2017-11-15T21:54:45.773Z,42.47
2017-11-15T21:57:13.349Z,42.92
2017-11-15T21:59:40.889Z,41.85
2017-11-15T22:02:08.466Z,39.35
2017-11-15T22:04:36.013Z,38.95
2017-11-15T22:07:03.589Z,43.60
2017-11-15T22:09:31.129Z,37.88
2017-11-15T22:11:58.670Z,41.42
2017-11-15T22:14:26.245Z,39.85
2017-11-15T22:16:53.780Z,40.78
2017-11-15T22:19:21.379Z,41.30
2017-11-15T22:21:48.914Z,38.88
2017-11-15T22:24:16.490Z,37.70
2017-11-15T22:26:44.029Z,42.62
2017-11-15T22:29:12.379Z,41.53
2017-11-15T22:31:40.679Z,44.00
2017-11-15T22:34:08.255Z,41.50
2017-11-15T22:36:35.798Z,48.85
2017-11-15T22:39:03.378Z,43.67
2017-11-15T22:41:30.923Z,50.75
2017-11-15T22:43:58.507Z,48.65
2017-11-15T22:46:26.052Z,49.15
2017-11-15T22:48:53.624Z,40.90
2017-11-15T22:51:21.162Z,45.40
2017-11-15T22:53:48.738Z,49.58
2017-11-15T22:56:16.281Z,43.13
2017-11-15T22:58:43.862Z,52.65
2017-11-15T23:01:11.400Z,44.53
2017-11-15T23:03:38.983Z,43.97
2017-11-15T23:06:06.568Z,46.53
2017-11-15T23:08:34.113Z,44.55
2017-11-15T23:11:01.689Z,49.78
2017-11-15T23:13:29.237Z,47.72
2017-11-15T23:15:56.809Z,50.53
2017-11-15T23:18:24.357Z,49.40
2017-11-15T23:20:51.952Z,49.95
2017-11-15T23:23:20.252Z,50.45
2017-11-15T23:25:47.794Z,49.25
2017-11-15T23:28:16.136Z,43.40
2017-11-15T23:30:43.679Z,44.35
2017-11-15T23:33:11.253Z,44.67
2017-11-15T23:35:38.791Z,44.70
2017-11-15T23:38:06.372Z,48.03
2017-11-15T23:40:33.906Z,52.15
2017-11-15T23:43:01.483Z,56.33
2017-11-15T23:45:29.024Z,52.62
2017-11-15T23:47:56.602Z,42.45
2017-11-15T23:50:24.146Z,51.25
2017-11-15T23:52:51.725Z,49.10
2017-11-15T23:55:19.365Z,52.80
2017-11-15T23:57:46.949Z,49.40
